Portada
METAR-TAF:

METAR-TAF

Aeropuertos :

Viena, Austria

Aeropuerto de Viena-Schwechat

latitud: 48-07N, longitud: 016-34E, altitud: 183 m

Observación

El informe se hizo hace 43 minutos, a las 07:50 UTC
Viento 9 kt del sureste, variando entre este y sur-sureste
Temperatura 20°C
Humedad 53%
Presión 1024 hPa
Visibilidad 10 km o más
sin nubes por debajo de 1500 m y sin presencia de cumulonimbus.

METAR: LOWW 280750Z 13009KT 100V160 CAVOK 20/10 Q1024 NOSIG

Hora: 10:33 (08:33 UTC)

Pronóstico

El informe se hizo hace 3 horas y 18 minutos, a las 05:15 UTC
Pronóstico válido del 28 a las 06 UTC al 29 a las 12 UTC
Viento 7 kt del sureste
Visibilidad 10 km o más
sin nubes por debajo de 1500 m y sin presencia de cumulonimbus.
Temporalmente
del 28 a las 09 UTC al 28 a las 17 UTC
Viento 13 kt del sureste

TAF: LOWW 280515Z 2806/2912 13007KT CAVOK TX28/2912Z TN13/2903Z TEMPO 2809/2817 14013KT

Observaciones y pronósticos meteorológicos de más de 4000 aeropuertos (mensajes METAR y TAF).

Los puntos amarillos y rojos representan las estaciones disponibles.

Ponga el ratón en el punto deseado para ver el nombre de la estación.

Haga clic para ver las observaciones y los pronósticos meteorológicos.

Para cambiar el mapa : haga clic en los botones verdes con una cruz de color negro para hacer un zoom, en el botón verde con un guión para alejar o en las flechas verdes para mapas adyacentes.


METAR-TAF: